sensor_id;sensor_type;location;lat;lon;timestamp;pressure;altitude;pressure_sealevel;temperature;humidity
20368;BME280;10343;52.402;9.796;2023-05-25T00:02:01;101902.94;;;21.97;41.92
20368;BME280;10343;52.402;9.796;2023-05-25T00:04:30;101897.59;;;21.61;42.62
20368;BME280;10343;52.402;9.796;2023-05-25T00:07:00;101895.69;;;22.15;41.60
20368;BME280;10343;52.402;9.796;2023-05-25T00:09:28;101895.03;;;22.28;41.14
20368;BME280;10343;52.402;9.796;2023-05-25T00:11:56;101896.81;;;20.44;44.87
20368;BME280;10343;52.402;9.796;2023-05-25T00:14:26;101901.03;;;20.90;44.46
20368;BME280;10343;52.402;9.796;2023-05-25T00:16:56;101897.84;;;21.37;43.23
20368;BME280;10343;52.402;9.796;2023-05-25T00:19:24;101901.56;;;21.88;42.06
20368;BME280;10343;52.402;9.796;2023-05-25T00:21:52;101901.78;;;21.30;42.95
20368;BME280;10343;52.402;9.796;2023-05-25T00:24:20;101905.44;;;21.10;43.62
20368;BME280;10343;52.402;9.796;2023-05-25T00:26:48;101909.53;;;20.80;43.90
20368;BME280;10343;52.402;9.796;2023-05-25T00:29:16;101901.03;;;21.45;42.72
20368;BME280;10343;52.402;9.796;2023-05-25T00:31:46;101901.03;;;20.90;43.68
20368;BME280;10343;52.402;9.796;2023-05-25T00:34:15;101901.91;;;21.27;43.17
20368;BME280;10343;52.402;9.796;2023-05-25T00:36:43;101904.09;;;21.37;42.86
20368;BME280;10343;52.402;9.796;2023-05-25T00:39:13;101904.75;;;20.87;43.92
20368;BME280;10343;52.402;9.796;2023-05-25T00:41:43;101902.25;;;20.82;44.34
20368;BME280;10343;52.402;9.796;2023-05-25T00:44:13;101909.38;;;21.21;43.44
20368;BME280;10343;52.402;9.796;2023-05-25T00:46:44;101906.78;;;21.01;43.88
20368;BME280;10343;52.402;9.796;2023-05-25T00:49:17;101900.53;;;20.61;44.89
20368;BME280;10343;52.402;9.796;2023-05-25T00:51:46;101900.53;;;20.61;44.75
20368;BME280;10343;52.402;9.796;2023-05-25T00:54:16;101902.81;;;20.49;45.33
20368;BME280;10343;52.402;9.796;2023-05-25T00:56:46;101900.38;;;20.03;46.19
20368;BME280;10343;52.402;9.796;2023-05-25T00:59:24;101900.22;;;20.27;46.13
20368;BME280;10343;52.402;9.796;2023-05-25T01:01:54;101906.19;;;20.75;44.75
20368;BME280;10343;52.402;9.796;2023-05-25T01:04:26;101904.16;;;20.80;44.56
20368;BME280;10343;52.402;9.796;2023-05-25T01:06:55;101896.06;;;20.99;43.99
20368;BME280;10343;52.402;9.796;2023-05-25T01:09:26;101897.16;;;20.76;44.59
20368;BME280;10343;52.402;9.796;2023-05-25T01:11:55;101897.88;;;20.80;44.67
20368;BME280;10343;52.402;9.796;2023-05-25T01:14:26;101901.66;;;20.15;45.79
20368;BME280;10343;52.402;9.796;2023-05-25T01:16:55;101906.13;;;20.56;45.28
20368;BME280;10343;52.402;9.796;2023-05-25T01:19:25;101904.75;;;20.27;45.85
20368;BME280;10343;52.402;9.796;2023-05-25T01:22:03;101906.06;;;20.18;45.94
20368;BME280;10343;52.402;9.796;2023-05-25T01:24:35;101902.81;;;20.30;45.65
20368;BME280;10343;52.402;9.796;2023-05-25T01:27:11;101897.72;;;20.43;45.36
20368;BME280;10343;52.402;9.796;2023-05-25T01:29:43;101898.44;;;19.87;46.36
20368;BME280;10343;52.402;9.796;2023-05-25T01:32:12;101900.53;;;19.78;46.80
20368;BME280;10343;52.402;9.796;2023-05-25T01:34:42;101894.13;;;20.24;45.83
20368;BME280;10343;52.402;9.796;2023-05-25T01:37:11;101899.13;;;20.52;45.04
20368;BME280;10343;52.402;9.796;2023-05-25T01:39:40;101901.88;;;20.50;44.90
20368;BME280;10343;52.402;9.796;2023-05-25T01:42:08;101900.16;;;20.08;45.64
20368;BME280;10343;52.402;9.796;2023-05-25T01:44:36;101900.31;;;20.26;45.55
20368;BME280;10343;52.402;9.796;2023-05-25T01:47:09;101895.31;;;20.16;45.79
20368;BME280;10343;52.402;9.796;2023-05-25T01:49:43;101895.84;;;20.25;45.58
20368;BME280;10343;52.402;9.796;2023-05-25T01:52:19;101895.31;;;20.37;45.08
20368;BME280;10343;52.402;9.796;2023-05-25T01:54:52;101887.84;;;20.63;44.59
20368;BME280;10343;52.402;9.796;2023-05-25T01:57:23;101893.97;;;20.27;45.22
20368;BME280;10343;52.402;9.796;2023-05-25T01:59:55;101905.50;;;19.89;46.12
20368;BME280;10343;52.402;9.796;2023-05-25T02:02:26;101893.59;;;19.95;45.92
20368;BME280;10343;52.402;9.796;2023-05-25T02:04:55;101890.84;;;20.57;44.69
20368;BME280;10343;52.402;9.796;2023-05-25T02:07:25;101905.22;;;19.95;45.77
20368;BME280;10343;52.402;9.796;2023-05-25T02:09:54;101911.03;;;19.42;47.03
20368;BME280;10343;52.402;9.796;2023-05-25T02:12:22;101900.38;;;19.61;46.54
20368;BME280;10343;52.402;9.796;2023-05-25T02:14:50;101909.59;;;19.98;45.81
20368;BME280;10343;52.402;9.796;2023-05-25T02:17:18;101891.81;;;20.35;44.77
20368;BME280;10343;52.402;9.796;2023-05-25T02:19:47;101893.28;;;20.42;44.54
20368;BME280;10343;52.402;9.796;2023-05-25T02:22:19;101895.88;;;20.04;45.49
20368;BME280;10343;52.402;9.796;2023-05-25T02:24:48;101903.34;;;19.55;46.80
20368;BME280;10343;52.402;9.796;2023-05-25T02:27:16;101904.88;;;19.16;47.96
20368;BME280;10343;52.402;9.796;2023-05-25T02:29:44;101907.00;;;19.74;46.50
20368;BME280;10343;52.402;9.796;2023-05-25T02:32:12;101903.38;;;20.37;45.35
20368;BME280;10343;52.402;9.796;2023-05-25T02:34:40;101896.75;;;20.65;44.55
20368;BME280;10343;52.402;9.796;2023-05-25T02:37:08;101902.16;;;20.84;44.17
20368;BME280;10343;52.402;9.796;2023-05-25T02:39:36;101905.03;;;21.00;43.87
20368;BME280;10343;52.402;9.796;2023-05-25T02:42:06;101906.56;;;20.66;44.36
20368;BME280;10343;52.402;9.796;2023-05-25T02:44:34;101905.31;;;20.75;44.13
20368;BME280;10343;52.402;9.796;2023-05-25T02:47:02;101901.94;;;20.09;45.65
20368;BME280;10343;52.402;9.796;2023-05-25T02:49:31;101898.97;;;20.36;45.50
20368;BME280;10343;52.402;9.796;2023-05-25T02:52:00;101908.66;;;20.80;44.43
20368;BME280;10343;52.402;9.796;2023-05-25T02:54:27;101910.28;;;20.44;44.68
20368;BME280;10343;52.402;9.796;2023-05-25T02:56:56;101916.94;;;19.72;46.40
20368;BME280;10343;52.402;9.796;2023-05-25T02:59:26;101915.50;;;20.68;44.57
20368;BME280;10343;52.402;9.796;2023-05-25T03:01:53;101912.44;;;20.15;45.76
20368;BME280;10343;52.402;9.796;2023-05-25T03:04:22;101918.16;;;20.28;44.98
20368;BME280;10343;52.402;9.796;2023-05-25T03:06:50;101919.78;;;19.25;47.73
20368;BME280;10343;52.402;9.796;2023-05-25T03:09:18;101920.03;;;19.63;47.13
20368;BME280;10343;52.402;9.796;2023-05-25T03:11:48;101913.03;;;20.82;44.32
20368;BME280;10343;52.402;9.796;2023-05-25T03:14:19;101917.47;;;21.41;42.74
20368;BME280;10343;52.402;9.796;2023-05-25T03:16:56;101926.91;;;19.92;45.56
20368;BME280;10343;52.402;9.796;2023-05-25T03:19:26;101921.69;;;20.70;44.22
20368;BME280;10343;52.402;9.796;2023-05-25T03:21:53;101921.09;;;20.82;44.48
20368;BME280;10343;52.402;9.796;2023-05-25T03:24:22;101922.53;;;21.10;43.34
20368;BME280;10343;52.402;9.796;2023-05-25T03:26:50;101925.78;;;20.58;43.98
20368;BME280;10343;52.402;9.796;2023-05-25T03:29:18;101926.88;;;20.75;44.38
20368;BME280;10343;52.402;9.796;2023-05-25T03:31:46;101923.69;;;20.85;43.86
20368;BME280;10343;52.402;9.796;2023-05-25T03:34:16;101919.44;;;20.99;43.64
20368;BME280;10343;52.402;9.796;2023-05-25T03:36:44;101919.00;;;20.49;44.61
20368;BME280;10343;52.402;9.796;2023-05-25T03:39:15;101922.66;;;20.69;44.34
20368;BME280;10343;52.402;9.796;2023-05-25T03:41:43;101929.06;;;20.85;44.32
20368;BME280;10343;52.402;9.796;2023-05-25T03:44:12;101936.34;;;21.02;43.93
20368;BME280;10343;52.402;9.796;2023-05-25T03:46:41;101938.13;;;21.03;43.85
20368;BME280;10343;52.402;9.796;2023-05-25T03:49:11;101937.66;;;20.75;44.13
20368;BME280;10343;52.402;9.796;2023-05-25T03:51:41;101940.50;;;19.67;46.32
20368;BME280;10343;52.402;9.796;2023-05-25T03:54:11;101943.16;;;20.72;44.49
20368;BME280;10343;52.402;9.796;2023-05-25T03:56:39;101942.91;;;19.73;46.76
20368;BME280;10343;52.402;9.796;2023-05-25T03:59:07;101940.44;;;20.73;44.18
20368;BME280;10343;52.402;9.796;2023-05-25T04:01:35;101955.50;;;20.57;44.63
20368;BME280;10343;52.402;9.796;2023-05-25T04:04:04;101960.91;;;20.57;44.49
20368;BME280;10343;52.402;9.796;2023-05-25T04:06:32;101954.88;;;21.10;43.74
20368;BME280;10343;52.402;9.796;2023-05-25T04:09:04;101950.78;;;21.76;42.25
20368;BME280;10343;52.402;9.796;2023-05-25T04:11:32;101953.47;;;21.59;42.39
20368;BME280;10343;52.402;9.796;2023-05-25T04:14:00;101954.41;;;20.81;44.12
20368;BME280;10343;52.402;9.796;2023-05-25T04:16:32;101951.59;;;20.64;44.28
20368;BME280;10343;52.402;9.796;2023-05-25T04:19:01;101953.03;;;20.92;43.72
20368;BME280;10343;52.402;9.796;2023-05-25T04:21:29;101948.31;;;21.16;43.37
20368;BME280;10343;52.402;9.796;2023-05-25T04:23:58;101950.94;;;21.36;42.51
20368;BME280;10343;52.402;9.796;2023-05-25T04:26:28;101959.94;;;20.78;43.65
20368;BME280;10343;52.402;9.796;2023-05-25T04:28:59;101960.03;;;20.96;43.81
20368;BME280;10343;52.402;9.796;2023-05-25T04:31:44;101964.03;;;21.44;42.53
20368;BME280;10343;52.402;9.796;2023-05-25T04:34:13;101963.84;;;20.30;44.61
20368;BME280;10343;52.402;9.796;2023-05-25T04:36:51;101971.13;;;20.28;45.03
20368;BME280;10343;52.402;9.796;2023-05-25T04:39:21;101968.91;;;21.36;42.66
20368;BME280;10343;52.402;9.796;2023-05-25T04:41:54;101968.84;;;20.39;44.47
20368;BME280;10343;52.402;9.796;2023-05-25T04:44:23;101974.19;;;21.01;42.90
20368;BME280;10343;52.402;9.796;2023-05-25T04:46:56;101975.22;;;21.73;41.45
20368;BME280;10343;52.402;9.796;2023-05-25T04:49:32;101978.53;;;20.23;44.41
20368;BME280;10343;52.402;9.796;2023-05-25T04:52:00;101990.47;;;18.54;48.53
20368;BME280;10343;52.402;9.796;2023-05-25T04:54:30;101995.56;;;18.37;48.77
20368;BME280;10343;52.402;9.796;2023-05-25T04:57:02;101983.75;;;20.05;45.37
20368;BME280;10343;52.402;9.796;2023-05-25T04:59:30;101974.22;;;21.18;43.10
20368;BME280;10343;52.402;9.796;2023-05-25T05:01:59;101978.91;;;21.34;41.80
20368;BME280;10343;52.402;9.796;2023-05-25T05:04:27;101983.50;;;21.70;41.90
20368;BME280;10343;52.402;9.796;2023-05-25T05:06:55;101983.34;;;21.73;41.14
20368;BME280;10343;52.402;9.796;2023-05-25T05:09:26;101981.78;;;21.86;41.34
20368;BME280;10343;52.402;9.796;2023-05-25T05:11:57;101974.47;;;22.59;39.59
20368;BME280;10343;52.402;9.796;2023-05-25T05:14:27;101988.91;;;22.75;39.79
20368;BME280;10343;52.402;9.796;2023-05-25T05:16:55;101994.63;;;21.81;40.99
20368;BME280;10343;52.402;9.796;2023-05-25T05:19:24;101996.81;;;21.35;41.42
20368;BME280;10343;52.402;9.796;2023-05-25T05:21:52;101999.81;;;21.48;41.52
20368;BME280;10343;52.402;9.796;2023-05-25T05:24:20;101998.09;;;21.66;40.83
20368;BME280;10343;52.402;9.796;2023-05-25T05:26:48;101996.91;;;22.08;39.84
20368;BME280;10343;52.402;9.796;2023-05-25T05:29:45;102003.88;;;22.12;39.71
20368;BME280;10343;52.402;9.796;2023-05-25T05:32:13;102015.44;;;20.41;42.69
20368;BME280;10343;52.402;9.796;2023-05-25T05:34:41;102010.56;;;20.91;42.04
20368;BME280;10343;52.402;9.796;2023-05-25T05:37:21;102010.53;;;21.11;41.92
20368;BME280;10343;52.402;9.796;2023-05-25T05:39:49;102019.59;;;21.10;41.94
20368;BME280;10343;52.402;9.796;2023-05-25T05:42:18;102022.34;;;20.69;42.66
20368;BME280;10343;52.402;9.796;2023-05-25T05:44:47;102021.25;;;20.94;42.30
20368;BME280;10343;52.402;9.796;2023-05-25T05:47:15;102025.47;;;20.58;42.84
20368;BME280;10343;52.402;9.796;2023-05-25T05:49:43;102022.50;;;21.25;41.22
20368;BME280;10343;52.402;9.796;2023-05-25T05:52:11;102028.84;;;20.43;42.98
20368;BME280;10343;52.402;9.796;2023-05-25T05:54:39;102049.66;;;19.50;44.45
20368;BME280;10343;52.402;9.796;2023-05-25T05:57:10;102048.31;;;19.84;44.93
20368;BME280;10343;52.402;9.796;2023-05-25T05:59:38;102048.03;;;20.56;43.59
20368;BME280;10343;52.402;9.796;2023-05-25T06:02:07;102056.84;;;20.81;42.73
20368;BME280;10343;52.402;9.796;2023-05-25T06:04:36;102059.84;;;19.41;45.84
20368;BME280;10343;52.402;9.796;2023-05-25T06:07:04;102045.53;;;21.51;41.32
20368;BME280;10343;52.402;9.796;2023-05-25T06:09:32;102058.22;;;20.49;42.93
20368;BME280;10343;52.402;9.796;2023-05-25T06:12:01;102071.72;;;20.27;43.43
20368;BME280;10343;52.402;9.796;2023-05-25T06:14:29;102060.06;;;21.09;42.31
20368;BME280;10343;52.402;9.796;2023-05-25T06:17:00;102066.28;;;20.49;43.54
20368;BME280;10343;52.402;9.796;2023-05-25T06:19:30;102080.13;;;19.02;47.28
20368;BME280;10343;52.402;9.796;2023-05-25T06:21:58;102085.75;;;18.42;48.38
20368;BME280;10343;52.402;9.796;2023-05-25T06:24:26;102074.81;;;18.48;48.69
20368;BME280;10343;52.402;9.796;2023-05-25T06:26:54;102079.13;;;18.53;48.58
20368;BME280;10343;52.402;9.796;2023-05-25T06:29:22;102084.94;;;18.13;50.19
20368;BME280;10343;52.402;9.796;2023-05-25T06:31:50;102073.38;;;19.39;47.45
20368;BME280;10343;52.402;9.796;2023-05-25T06:34:18;102072.59;;;20.05;46.20
20368;BME280;10343;52.402;9.796;2023-05-25T06:36:47;102069.41;;;21.01;43.94
20368;BME280;10343;52.402;9.796;2023-05-25T06:39:16;102070.47;;;21.37;42.67
20368;BME280;10343;52.402;9.796;2023-05-25T06:41:44;102070.00;;;20.67;43.57
20368;BME280;10343;52.402;9.796;2023-05-25T06:44:24;102081.88;;;21.04;43.18
20368;BME280;10343;52.402;9.796;2023-05-25T06:46:52;102074.94;;;21.76;41.47
20368;BME280;10343;52.402;9.796;2023-05-25T06:49:20;102072.56;;;21.11;42.81
20368;BME280;10343;52.402;9.796;2023-05-25T06:51:49;102074.66;;;21.82;41.50
20368;BME280;10343;52.402;9.796;2023-05-25T06:54:17;102081.44;;;22.98;39.34
20368;BME280;10343;52.402;9.796;2023-05-25T06:56:46;102080.44;;;23.34;38.45
20368;BME280;10343;52.402;9.796;2023-05-25T06:59:14;102080.63;;;23.79;37.82
20368;BME280;10343;52.402;9.796;2023-05-25T07:01:42;102082.03;;;22.52;39.92
20368;BME280;10343;52.402;9.796;2023-05-25T07:04:10;102082.31;;;23.16;38.84
20368;BME280;10343;52.402;9.796;2023-05-25T07:06:38;102086.47;;;22.35;40.13
20368;BME280;10343;52.402;9.796;2023-05-25T07:09:07;102091.44;;;22.26;40.02
20368;BME280;10343;52.402;9.796;2023-05-25T07:11:35;102089.56;;;22.98;38.84
20368;BME280;10343;52.402;9.796;2023-05-25T07:14:03;102084.13;;;23.49;38.60
20368;BME280;10343;52.402;9.796;2023-05-25T07:16:31;102077.50;;;24.79;35.88
20368;BME280;10343;52.402;9.796;2023-05-25T07:18:59;102083.94;;;24.32;36.48
20368;BME280;10343;52.402;9.796;2023-05-25T07:21:30;102083.19;;;24.14;36.84
20368;BME280;10343;52.402;9.796;2023-05-25T07:23:58;102088.47;;;25.06;35.74
20368;BME280;10343;52.402;9.796;2023-05-25T07:26:29;102083.91;;;24.92;35.34
20368;BME280;10343;52.402;9.796;2023-05-25T07:28:57;102079.19;;;25.25;35.19
20368;BME280;10343;52.402;9.796;2023-05-25T07:31:25;102074.50;;;26.12;33.82
20368;BME280;10343;52.402;9.796;2023-05-25T07:33:53;102076.16;;;25.58;34.68
20368;BME280;10343;52.402;9.796;2023-05-25T07:36:21;102081.19;;;24.01;37.35
20368;BME280;10343;52.402;9.796;2023-05-25T07:38:50;102077.97;;;24.41;36.48
20368;BME280;10343;52.402;9.796;2023-05-25T07:41:18;102078.94;;;25.86;34.39
20368;BME280;10343;52.402;9.796;2023-05-25T07:43:47;102086.22;;;25.71;34.34
20368;BME280;10343;52.402;9.796;2023-05-25T07:46:15;102081.00;;;25.24;34.73
20368;BME280;10343;52.402;9.796;2023-05-25T07:48:46;102073.19;;;25.90;34.02
20368;BME280;10343;52.402;9.796;2023-05-25T07:51:14;102081.19;;;25.65;34.54
20368;BME280;10343;52.402;9.796;2023-05-25T07:53:42;102085.56;;;27.15;32.36
20368;BME280;10343;52.402;9.796;2023-05-25T07:56:10;102078.00;;;25.15;35.23
20368;BME280;10343;52.402;9.796;2023-05-25T07:58:38;102082.88;;;25.53;34.54
20368;BME280;10343;52.402;9.796;2023-05-25T08:01:07;102090.03;;;25.10;35.39
20368;BME280;10343;52.402;9.796;2023-05-25T08:03:35;102088.53;;;24.76;35.79
20368;BME280;10343;52.402;9.796;2023-05-25T08:06:15;102092.47;;;25.58;34.38
20368;BME280;10343;52.402;9.796;2023-05-25T08:08:43;102092.09;;;24.62;35.93
20368;BME280;10343;52.402;9.796;2023-05-25T08:11:13;102098.09;;;24.37;36.67
20368;BME280;10343;52.402;9.796;2023-05-25T08:13:42;102087.97;;;25.00;35.84
20368;BME280;10343;52.402;9.796;2023-05-25T08:16:11;102088.56;;;24.90;35.79
20368;BME280;10343;52.402;9.796;2023-05-25T08:18:39;102097.81;;;25.17;35.14
20368;BME280;10343;52.402;9.796;2023-05-25T08:21:09;102096.47;;;24.65;36.00
20368;BME280;10343;52.402;9.796;2023-05-25T08:23:38;102102.28;;;24.73;35.39
20368;BME280;10343;52.402;9.796;2023-05-25T08:26:07;102104.91;;;24.89;35.63
20368;BME280;10343;52.402;9.796;2023-05-25T08:28:55;102102.41;;;24.86;35.90
20368;BME280;10343;52.402;9.796;2023-05-25T08:31:25;102104.75;;;25.06;35.17
20368;BME280;10343;52.402;9.796;2023-05-25T08:33:53;102107.81;;;23.28;38.39
20368;BME280;10343;52.402;9.796;2023-05-25T08:36:21;102098.03;;;24.83;36.07
20368;BME280;10343;52.402;9.796;2023-05-25T08:38:49;102106.56;;;24.77;36.20
20368;BME280;10343;52.402;9.796;2023-05-25T08:41:18;102107.56;;;25.19;35.54
20368;BME280;10343;52.402;9.796;2023-05-25T08:43:46;102110.50;;;24.41;36.42
20368;BME280;10343;52.402;9.796;2023-05-25T08:46:20;102112.69;;;24.34;36.79
20368;BME280;10343;52.402;9.796;2023-05-25T08:48:58;102110.53;;;25.87;34.91
20368;BME280;10343;52.402;9.796;2023-05-25T08:51:28;102107.38;;;24.33;36.97
20368;BME280;10343;52.402;9.796;2023-05-25T08:54:06;102099.72;;;25.72;34.33
20368;BME280;10343;52.402;9.796;2023-05-25T08:56:38;102103.78;;;26.61;32.96
20368;BME280;10343;52.402;9.796;2023-05-25T08:59:16;102107.53;;;25.91;34.00
20368;BME280;10343;52.402;9.796;2023-05-25T09:01:51;102120.44;;;26.30;33.62
20368;BME280;10343;52.402;9.796;2023-05-25T09:04:22;102119.72;;;26.13;33.88
20368;BME280;10343;52.402;9.796;2023-05-25T09:06:50;102122.16;;;24.57;36.27
20368;BME280;10343;52.402;9.796;2023-05-25T09:09:36;102110.13;;;25.37;35.34
20368;BME280;10343;52.402;9.796;2023-05-25T09:12:06;102114.47;;;24.50;36.16
20368;BME280;10343;52.402;9.796;2023-05-25T09:14:35;102107.91;;;25.58;34.80
20368;BME280;10343;52.402;9.796;2023-05-25T09:17:05;102114.38;;;26.39;33.50
20368;BME280;10343;52.402;9.796;2023-05-25T09:19:35;102114.34;;;25.70;34.62
20368;BME280;10343;52.402;9.796;2023-05-25T09:22:03;102116.19;;;24.67;36.22
20368;BME280;10343;52.402;9.796;2023-05-25T09:24:41;102118.03;;;23.72;37.98
20368;BME280;10343;52.402;9.796;2023-05-25T09:27:11;102121.88;;;23.68;38.41
20368;BME280;10343;52.402;9.796;2023-05-25T09:29:40;102125.63;;;23.32;38.99
20368;BME280;10343;52.402;9.796;2023-05-25T09:32:08;102119.78;;;24.05;37.30
20368;BME280;10343;52.402;9.796;2023-05-25T09:34:38;102134.97;;;22.56;40.19
20368;BME280;10343;52.402;9.796;2023-05-25T09:37:10;102130.84;;;23.19;39.18
20368;BME280;10343;52.402;9.796;2023-05-25T09:39:39;102124.06;;;24.25;37.56
20368;BME280;10343;52.402;9.796;2023-05-25T09:42:07;102123.81;;;23.98;37.70
20368;BME280;10343;52.402;9.796;2023-05-25T09:44:35;102133.38;;;23.55;38.46
20368;BME280;10343;52.402;9.796;2023-05-25T09:47:04;102129.25;;;23.98;37.46
20368;BME280;10343;52.402;9.796;2023-05-25T09:49:32;102129.06;;;24.01;37.36
20368;BME280;10343;52.402;9.796;2023-05-25T09:52:01;102137.41;;;24.44;36.72
20368;BME280;10343;52.402;9.796;2023-05-25T09:54:29;102134.28;;;24.20;37.13
20368;BME280;10343;52.402;9.796;2023-05-25T09:57:01;102132.72;;;24.32;36.75
20368;BME280;10343;52.402;9.796;2023-05-25T09:59:29;102135.69;;;24.27;37.02
20368;BME280;10343;52.402;9.796;2023-05-25T10:01:57;102151.44;;;22.86;38.99
20368;BME280;10343;52.402;9.796;2023-05-25T10:04:25;102151.09;;;23.28;38.23
20368;BME280;10343;52.402;9.796;2023-05-25T10:06:54;102151.41;;;23.88;37.35
20368;BME280;10343;52.402;9.796;2023-05-25T10:09:26;102158.19;;;23.64;37.56
20368;BME280;10343;52.402;9.796;2023-05-25T10:11:56;102160.34;;;22.71;38.70
20368;BME280;10343;52.402;9.796;2023-05-25T10:14:25;102160.84;;;21.27;41.78
20368;BME280;10343;52.402;9.796;2023-05-25T10:16:58;102162.13;;;22.89;39.20
20368;BME280;10343;52.402;9.796;2023-05-25T10:19:30;102159.59;;;23.71;38.51
20368;BME280;10343;52.402;9.796;2023-05-25T10:22:03;102150.72;;;24.17;37.12
20368;BME280;10343;52.402;9.796;2023-05-25T10:24:38;102150.53;;;24.36;37.02
20368;BME280;10343;52.402;9.796;2023-05-25T10:27:13;102162.53;;;23.50;38.05
20368;BME280;10343;52.402;9.796;2023-05-25T10:29:51;102148.44;;;24.09;36.80
20368;BME280;10343;52.402;9.796;2023-05-25T10:32:20;102150.53;;;24.36;36.22
20368;BME280;10343;52.402;9.796;2023-05-25T10:34:51;102142.59;;;24.79;35.80
20368;BME280;10343;52.402;9.796;2023-05-25T10:37:19;102138.97;;;25.09;34.97
20368;BME280;10343;52.402;9.796;2023-05-25T10:39:52;102144.53;;;25.51;34.88
20368;BME280;10343;52.402;9.796;2023-05-25T10:42:24;102149.50;;;23.90;37.34
20368;BME280;10343;52.402;9.796;2023-05-25T10:44:53;102153.13;;;24.69;35.90
20368;BME280;10343;52.402;9.796;2023-05-25T10:47:23;102155.88;;;23.89;37.08
20368;BME280;10343;52.402;9.796;2023-05-25T10:49:53;102156.19;;;24.47;36.60
20368;BME280;10343;52.402;9.796;2023-05-25T10:52:25;102149.88;;;24.16;36.60
20368;BME280;10343;52.402;9.796;2023-05-25T10:55:00;102153.84;;;22.93;38.58
20368;BME280;10343;52.402;9.796;2023-05-25T10:57:30;102154.38;;;23.17;38.78
20368;BME280;10343;52.402;9.796;2023-05-25T11:00:04;102162.13;;;22.35;39.29
20368;BME280;10343;52.402;9.796;2023-05-25T11:02:47;102155.94;;;23.72;37.63
20368;BME280;10343;52.402;9.796;2023-05-25T11:05:31;102155.75;;;23.41;38.25
20368;BME280;10343;52.402;9.796;2023-05-25T11:08:00;102154.09;;;24.36;36.31
20368;BME280;10343;52.402;9.796;2023-05-25T11:10:51;102158.41;;;21.62;41.09
20368;BME280;10343;52.402;9.796;2023-05-25T11:13:36;102153.22;;;21.76;40.67
20368;BME280;10343;52.402;9.796;2023-05-25T11:16:11;102153.41;;;22.48;40.38
20368;BME280;10343;52.402;9.796;2023-05-25T11:18:44;102149.44;;;24.08;36.58
20368;BME280;10343;52.402;9.796;2023-05-25T11:21:21;102157.34;;;23.12;39.15
20368;BME280;10343;52.402;9.796;2023-05-25T11:23:54;102152.66;;;24.77;35.71
20368;BME280;10343;52.402;9.796;2023-05-25T11:26:24;102148.09;;;23.16;37.27
20368;BME280;10343;52.402;9.796;2023-05-25T11:28:53;102141.47;;;24.98;35.36
20368;BME280;10343;52.402;9.796;2023-05-25T11:31:26;102140.88;;;25.07;34.80
20368;BME280;10343;52.402;9.796;2023-05-25T11:33:59;102134.75;;;25.34;34.95
20368;BME280;10343;52.402;9.796;2023-05-25T11:36:28;102134.91;;;25.88;33.79
20368;BME280;10343;52.402;9.796;2023-05-25T11:38:58;102135.63;;;26.19;33.05
20368;BME280;10343;52.402;9.796;2023-05-25T11:41:39;102127.44;;;26.47;32.95
20368;BME280;10343;52.402;9.796;2023-05-25T11:44:07;102127.72;;;25.73;33.47
20368;BME280;10343;52.402;9.796;2023-05-25T11:46:36;102134.53;;;25.22;34.21
20368;BME280;10343;52.402;9.796;2023-05-25T11:49:04;102138.38;;;25.04;34.68
20368;BME280;10343;52.402;9.796;2023-05-25T11:51:33;102126.38;;;24.47;35.72
20368;BME280;10343;52.402;9.796;2023-05-25T11:54:01;102123.66;;;25.22;34.98
20368;BME280;10343;52.402;9.796;2023-05-25T11:56:31;102137.34;;;24.76;35.50
20368;BME280;10343;52.402;9.796;2023-05-25T11:59:06;102125.22;;;25.84;33.51
20368;BME280;10343;52.402;9.796;2023-05-25T12:01:34;102124.31;;;26.93;32.14
20368;BME280;10343;52.402;9.796;2023-05-25T12:04:07;102124.34;;;26.25;32.72
20368;BME280;10343;52.402;9.796;2023-05-25T12:06:35;102121.69;;;25.97;33.15
20368;BME280;10343;52.402;9.796;2023-05-25T12:09:10;102132.22;;;23.93;35.59
20368;BME280;10343;52.402;9.796;2023-05-25T12:11:38;102123.09;;;23.78;35.87
20368;BME280;10343;52.402;9.796;2023-05-25T12:14:13;102128.47;;;24.42;35.25
20368;BME280;10343;52.402;9.796;2023-05-25T12:16:41;102119.25;;;23.82;36.25
20368;BME280;10343;52.402;9.796;2023-05-25T12:19:09;102127.19;;;22.31;38.93
20368;BME280;10343;52.402;9.796;2023-05-25T12:21:39;102118.63;;;23.61;36.97
20368;BME280;10343;52.402;9.796;2023-05-25T12:24:08;102120.75;;;22.87;37.60
20368;BME280;10343;52.402;9.796;2023-05-25T12:26:46;102116.41;;;24.64;35.38
20368;BME280;10343;52.402;9.796;2023-05-25T12:29:16;102116.47;;;23.68;36.63
20368;BME280;10343;52.402;9.796;2023-05-25T12:31:44;102107.03;;;24.07;35.39
20368;BME280;10343;52.402;9.796;2023-05-25T12:34:13;102087.25;;;25.41;33.82
20368;BME280;10343;52.402;9.796;2023-05-25T12:36:43;102081.00;;;25.24;34.20
20368;BME280;10343;52.402;9.796;2023-05-25T12:39:12;102085.22;;;27.07;31.04
20368;BME280;10343;52.402;9.796;2023-05-25T12:41:42;102080.00;;;26.78;30.40
20368;BME280;10343;52.402;9.796;2023-05-25T12:44:22;102068.47;;;27.76;29.26
20368;BME280;10343;52.402;9.796;2023-05-25T12:46:52;102085.44;;;25.83;31.29
20368;BME280;10343;52.402;9.796;2023-05-25T12:49:22;102082.44;;;26.15;31.07
20368;BME280;10343;52.402;9.796;2023-05-25T12:51:50;102085.41;;;24.68;33.42
20368;BME280;10343;52.402;9.796;2023-05-25T12:54:41;102075.19;;;27.83;29.41
20368;BME280;10343;52.402;9.796;2023-05-25T12:57:11;102080.88;;;27.67;29.35
20368;BME280;10343;52.402;9.796;2023-05-25T12:59:42;102093.25;;;23.96;34.52
20368;BME280;10343;52.402;9.796;2023-05-25T13:02:11;102096.97;;;24.55;33.65
20368;BME280;10343;52.402;9.796;2023-05-25T13:04:40;102075.59;;;26.22;31.61
20368;BME280;10343;52.402;9.796;2023-05-25T13:07:10;102077.69;;;27.10;30.45